Foley, Alabama
Current Conditions -  °F | °C
As of 3:15 AM on Monday 24 Nov 2014 (Local Time) from KJKA Reporting Station
Broken Clouds Broken Clouds  
Wind Chill: 68°   Ceiling: 200
Heat Index: 68°   Visibility: 7mi
Dew Point: 68°   Wind: 9mph
Humidity: 100%   Direction: 260°W
Pressure: 29.76"   Gusts: NA
Location:  30.41°N, 87.68°W
Report Text: KJKA 240915Z AUTO 26008KT 7SM BKN002 SCT006 20/20 A2976 RMK AO2 T02000200
Loading
Personal Weather Stations






























Interactive Weather Map New forecast layout! Learn more

10-Day Weather Forecast

Advertisements
Track Severe Weather on mobile